sensor_id;sensor_type;location;lat;lon;timestamp;pressure;altitude;pressure_sealevel;temperature;humidity
9289;BME280;4683;50.864;12.086;2022-07-06T00:00:48;99665.50;;;18.15;87.38
9289;BME280;4683;50.864;12.086;2022-07-06T00:03:16;99665.34;;;18.10;87.40
9289;BME280;4683;50.864;12.086;2022-07-06T00:05:47;99659.81;;;18.05;87.88
9289;BME280;4683;50.864;12.086;2022-07-06T00:08:15;99666.63;;;18.00;89.41
9289;BME280;4683;50.864;12.086;2022-07-06T00:44:08;99666.47;;;17.89;86.92
9289;BME280;4683;50.864;12.086;2022-07-06T00:46:37;99660.47;;;17.93;87.40
9289;BME280;4683;50.864;12.086;2022-07-06T00:49:05;99668.66;;;17.98;87.18
9289;BME280;4683;50.864;12.086;2022-07-06T00:51:54;99665.22;;;17.91;87.30
9289;BME280;4683;50.864;12.086;2022-07-06T00:54:22;99670.56;;;17.91;87.79
9289;BME280;4683;50.864;12.086;2022-07-06T00:56:51;99666.25;;;17.90;88.23
9289;BME280;4683;50.864;12.086;2022-07-06T01:29:07;99670.84;;;17.77;88.38
9289;BME280;4683;50.864;12.086;2022-07-06T01:31:44;99674.94;;;17.79;87.99
9289;BME280;4683;50.864;12.086;2022-07-06T01:34:13;99662.63;;;17.78;88.76
9289;BME280;4683;50.864;12.086;2022-07-06T01:36:45;99659.56;;;17.68;89.76
9289;BME280;4683;50.864;12.086;2022-07-06T01:39:14;99662.81;;;17.70;89.23
9289;BME280;4683;50.864;12.086;2022-07-06T01:41:42;99658.97;;;17.59;89.90
9289;BME280;4683;50.864;12.086;2022-07-06T01:44:13;99663.91;;;17.56;89.91
9289;BME280;4683;50.864;12.086;2022-07-06T02:19:23;99662.59;;;17.13;91.75
9289;BME280;4683;50.864;12.086;2022-07-06T02:21:51;99661.75;;;17.19;90.81
9289;BME280;4683;50.864;12.086;2022-07-06T02:24:20;99664.44;;;17.26;90.90
9289;BME280;4683;50.864;12.086;2022-07-06T02:26:48;99663.19;;;17.29;91.32
9289;BME280;4683;50.864;12.086;2022-07-06T02:29:16;99670.16;;;17.23;90.70
9289;BME280;4683;50.864;12.086;2022-07-06T02:31:45;99671.81;;;17.11;91.36
9289;BME280;4683;50.864;12.086;2022-07-06T02:34:13;99681.69;;;17.17;89.80
9289;BME280;4683;50.864;12.086;2022-07-06T02:36:42;99673.47;;;17.05;90.15
9289;BME280;4683;50.864;12.086;2022-07-06T02:39:11;99681.91;;;16.89;90.61
9289;BME280;4683;50.864;12.086;2022-07-06T02:41:39;99686.00;;;16.78;90.32
9289;BME280;4683;50.864;12.086;2022-07-06T02:44:07;99688.47;;;16.73;90.96
9289;BME280;4683;50.864;12.086;2022-07-06T02:46:36;99683.09;;;16.66;91.33
9289;BME280;4683;50.864;12.086;2022-07-06T02:49:03;99684.13;;;16.59;91.92
9289;BME280;4683;50.864;12.086;2022-07-06T02:51:33;99685.34;;;16.56;92.10
9289;BME280;4683;50.864;12.086;2022-07-06T02:54:02;99687.81;;;16.58;92.92
9289;BME280;4683;50.864;12.086;2022-07-06T02:56:31;99684.94;;;16.53;93.88
9289;BME280;4683;50.864;12.086;2022-07-06T02:58:59;99680.44;;;16.46;93.52
9289;BME280;4683;50.864;12.086;2022-07-06T03:01:27;99684.53;;;16.42;94.19
9289;BME280;4683;50.864;12.086;2022-07-06T03:03:55;99692.09;;;16.39;94.30
9289;BME280;4683;50.864;12.086;2022-07-06T03:06:24;99690.03;;;16.34;94.58
9289;BME280;4683;50.864;12.086;2022-07-06T03:08:52;99682.44;;;16.24;95.46
9289;BME280;4683;50.864;12.086;2022-07-06T03:11:22;99685.31;;;16.23;95.39
9289;BME280;4683;50.864;12.086;2022-07-06T03:13:53;99690.00;;;16.21;94.98
9289;BME280;4683;50.864;12.086;2022-07-06T03:16:22;99696.56;;;16.25;95.77
9289;BME280;4683;50.864;12.086;2022-07-06T03:18:50;99699.88;;;16.27;95.24
9289;BME280;4683;50.864;12.086;2022-07-06T03:21:19;99701.28;;;16.30;95.07
9289;BME280;4683;50.864;12.086;2022-07-06T03:23:48;99704.78;;;16.30;94.53
9289;BME280;4683;50.864;12.086;2022-07-06T03:26:16;99709.91;;;16.32;95.03
9289;BME280;4683;50.864;12.086;2022-07-06T03:28:45;99705.00;;;16.35;93.90
9289;BME280;4683;50.864;12.086;2022-07-06T03:31:14;99708.06;;;16.39;93.57
9289;BME280;4683;50.864;12.086;2022-07-06T03:33:44;99713.63;;;16.51;92.60
9289;BME280;4683;50.864;12.086;2022-07-06T07:58:45;99835.22;;;20.31;62.62
9289;BME280;4683;50.864;12.086;2022-07-06T08:01:15;99836.06;;;20.49;62.60
9289;BME280;4683;50.864;12.086;2022-07-06T08:03:47;99840.56;;;20.67;61.60
9289;BME280;4683;50.864;12.086;2022-07-06T08:06:41;99836.56;;;20.58;61.29
9289;BME280;4683;50.864;12.086;2022-07-06T08:09:12;99836.31;;;20.41;62.33
9289;BME280;4683;50.864;12.086;2022-07-06T08:12:11;99833.94;;;20.33;62.40
9289;BME280;4683;50.864;12.086;2022-07-06T08:14:43;99830.34;;;20.39;61.85
9289;BME280;4683;50.864;12.086;2022-07-06T08:17:11;99834.00;;;20.63;61.00
9289;BME280;4683;50.864;12.086;2022-07-06T08:19:46;99827.59;;;21.06;59.25
9289;BME280;4683;50.864;12.086;2022-07-06T08:22:15;99812.34;;;21.18;58.76
9289;BME280;4683;50.864;12.086;2022-07-06T08:24:43;99817.28;;;21.33;57.91
9289;BME280;4683;50.864;12.086;2022-07-06T08:27:11;99816.50;;;21.68;56.67
9289;BME280;4683;50.864;12.086;2022-07-06T08:29:39;99810.16;;;21.86;56.00
9289;BME280;4683;50.864;12.086;2022-07-06T08:32:10;99815.88;;;21.66;56.84
9289;BME280;4683;50.864;12.086;2022-07-06T10:44:06;99772.28;;;23.52;43.00
9289;BME280;4683;50.864;12.086;2022-07-06T10:46:51;99766.97;;;23.96;41.61
9289;BME280;4683;50.864;12.086;2022-07-06T10:49:22;99760.38;;;23.65;42.55
9289;BME280;4683;50.864;12.086;2022-07-06T10:51:50;99768.38;;;23.43;43.48
9289;BME280;4683;50.864;12.086;2022-07-06T11:52:32;99743.59;;;24.01;39.89
9289;BME280;4683;50.864;12.086;2022-07-06T11:55:01;99744.94;;;24.26;40.56
9289;BME280;4683;50.864;12.086;2022-07-06T11:57:34;99750.16;;;23.89;40.62
9289;BME280;4683;50.864;12.086;2022-07-06T12:00:07;99751.22;;;23.66;41.17
9289;BME280;4683;50.864;12.086;2022-07-06T12:02:36;99744.34;;;23.75;40.98
9289;BME280;4683;50.864;12.086;2022-07-06T12:05:06;99732.56;;;23.81;39.69
9289;BME280;4683;50.864;12.086;2022-07-06T12:07:37;99736.94;;;23.87;39.33
9289;BME280;4683;50.864;12.086;2022-07-06T12:10:07;99728.31;;;23.85;38.98
9289;BME280;4683;50.864;12.086;2022-07-06T12:12:38;99735.38;;;24.13;38.69
9289;BME280;4683;50.864;12.086;2022-07-06T12:15:09;99723.06;;;24.22;38.08
9289;BME280;4683;50.864;12.086;2022-07-06T12:17:37;99728.88;;;24.36;37.86
9289;BME280;4683;50.864;12.086;2022-07-06T12:20:11;99711.75;;;24.52;37.53
9289;BME280;4683;50.864;12.086;2022-07-06T19:08:59;99671.47;;;20.09;39.73
9289;BME280;4683;50.864;12.086;2022-07-06T19:11:27;99676.03;;;20.20;39.54
9289;BME280;4683;50.864;12.086;2022-07-06T19:13:57;99670.28;;;20.16;39.89
9289;BME280;4683;50.864;12.086;2022-07-06T19:16:25;99677.25;;;20.06;39.40
9289;BME280;4683;50.864;12.086;2022-07-06T19:18:55;99678.75;;;20.01;40.11
9289;BME280;4683;50.864;12.086;2022-07-06T19:21:24;99667.91;;;19.96;40.33
9289;BME280;4683;50.864;12.086;2022-07-06T19:23:52;99680.72;;;19.94;39.93
9289;BME280;4683;50.864;12.086;2022-07-06T19:56:19;99705.09;;;19.13;41.66
9289;BME280;4683;50.864;12.086;2022-07-06T19:58:50;99698.06;;;19.12;41.98
9289;BME280;4683;50.864;12.086;2022-07-06T20:01:19;99705.75;;;19.08;42.35
9289;BME280;4683;50.864;12.086;2022-07-06T20:03:48;99704.09;;;19.07;42.54
9289;BME280;4683;50.864;12.086;2022-07-06T20:06:18;99698.69;;;19.14;42.90
9289;BME280;4683;50.864;12.086;2022-07-06T20:08:46;99697.22;;;19.18;42.81
9289;BME280;4683;50.864;12.086;2022-07-06T20:11:14;99695.72;;;19.22;42.86
9289;BME280;4683;50.864;12.086;2022-07-06T22:59:04;99666.78;;;15.82;57.45
9289;BME280;4683;50.864;12.086;2022-07-06T23:01:33;99658.59;;;15.83;58.92
9289;BME280;4683;50.864;12.086;2022-07-06T23:04:02;99650.81;;;15.88;58.20
9289;BME280;4683;50.864;12.086;2022-07-06T23:06:30;99649.41;;;15.92;58.68
9289;BME280;4683;50.864;12.086;2022-07-06T23:08:59;99650.84;;;15.95;58.27
9289;BME280;4683;50.864;12.086;2022-07-06T23:11:27;99649.63;;;15.97;58.64
